Airfield :
LOGIN :

Register | Disclaimer

   EN    FR    IT 

 










Legend :    VFR   Marginal VFR   IFR   Intensive IFR   Very Intensive IFR
Visi :
Ceiling :
>= 8 km
>= 3000ft
5 to 8 km
1000 to 3000 ft
1500m to 5 km
500 to 1000 ft
800 to 1500m
200 to 500 ft
< 800m
< 200 ft
Symbols :   Thunderstorms  Fog  Heavy snow  Heavy precipitations  Wind > 20 kt
SIGMETs :     Misc.  Thunderstorms  Icing  Turbulence  Mountain Waves  Volcanic Ashes






- Airport Elevation : 26 ft


ETNT - Wittmundhaven AB

CURRENT METAR :
  • 291120Z 24006KT 9999 FEW010 BKN120 13/10 Q1002 BLACKBLU

EXPIRED METARs :
  • 291020Z 24006KT 8000 FEW010 SCT120 12/10 Q1001 BLACKBLU+
  • 290920Z 24004KT 8000 FEW050 SCT120 09/09 Q1001 BLACKBLU+
  • 290846Z 01004KT 1800 BR SCT002 08/08 Q1001 BLACKYLO
  • 290835Z 01003KT 1200 BR FEW210 08/07 Q1001 BLACKAMB

Expired Forecast.



MET'MAP, your aeronautical weather chart ! - Copyright ORBIFLY December 2007 - Disclaimer

ORBIFLY MET'MAP TEAM :

Programming & Development : Alexandra Zaïnal
Original concept : Baudouin d'Aumeries
Technical & hardware support : Manuel Goepfert
Assistance : Marc-Olivier Méhu




SOURCES & CREDITS :

   NOAA